Time;durP1;ratioP1;P1;durP2;ratioP2;P2;SDS_P1;SDS_P2;PMS_P1;PMS_P2;Temp;Humidity;BMP_temperature;BMP_pressure;BME280_temperature;BME280_humidity;BME280_pressure;Samples;Min_cycle;Max_cycle;Signal;HPM_P1;HPM_P2
2021/05/27 00:00:30;;;;;;;9.73;2.40;;;;;;;13.29;72.29;101343.47;5072876;28;20048;-70
2021/05/27 00:02:58;;;;;;;6.30;2.60;;;;;;;13.33;72.04;101347.25;5073476;28;20067;-66
2021/05/27 00:05:26;;;;;;;9.95;2.47;;;;;;;13.18;72.32;101347.63;5052700;28;20060;-66
2021/05/27 00:07:54;;;;;;;5.15;2.58;;;;;;;13.31;72.65;101348.69;5071063;28;20056;-66
2021/05/27 00:10:24;;;;;;;5.05;2.53;;;;;;;13.19;72.49;101360.34;5070928;28;20051;-66
2021/05/27 00:12:52;;;;;;;4.28;2.10;;;;;;;13.07;73.02;101357.31;5075202;28;20056;-66
2021/05/27 00:15:22;;;;;;;6.95;1.98;;;;;;;13.03;73.27;101353.56;5090013;28;20048;-66
2021/05/27 00:17:49;;;;;;;5.18;2.03;;;;;;;12.87;74.02;101357.78;5090970;28;20483;-66
2021/05/27 00:20:17;;;;;;;5.65;2.22;;;;;;;12.72;74.41;101360.09;5056721;28;20040;-67
2021/05/27 00:22:45;;;;;;;6.32;2.13;;;;;;;12.75;74.73;101356.69;5056460;28;20044;-65
2021/05/27 00:25:13;;;;;;;6.75;2.42;;;;;;;12.83;73.56;101362.28;5090484;28;20047;-67
2021/05/27 00:27:42;;;;;;;5.63;2.50;;;;;;;12.81;74.04;101353.50;5090489;28;20048;-66
2021/05/27 00:30:11;;;;;;;4.50;2.47;;;;;;;12.84;73.98;101358.41;5090366;28;20055;-65
2021/05/27 00:32:39;;;;;;;8.57;2.70;;;;;;;13.02;73.33;101362.16;5090753;28;20052;-65
2021/05/27 00:35:07;;;;;;;7.20;2.55;;;;;;;12.99;73.06;101360.78;5090336;28;20051;-66
2021/05/27 00:37:35;;;;;;;9.60;2.60;;;;;;;12.72;74.41;101363.69;5072885;28;20483;-66
2021/05/27 00:40:07;;;;;;;3.88;2.03;;;;;;;12.67;74.61;101362.97;5090870;28;20043;-65
2021/05/27 00:42:34;;;;;;;6.63;2.38;;;;;;;12.73;74.32;101367.25;5091161;28;20047;-66
2021/05/27 00:45:08;;;;;;;8.57;2.63;;;;;;;12.76;74.65;101356.38;5072776;28;20051;-66
2021/05/27 00:47:36;;;;;;;4.70;2.10;;;;;;;13.03;73.55;101361.03;5109776;27;20040;-66
2021/05/27 00:50:06;;;;;;;7.03;2.58;;;;;;;13.12;72.94;101359.97;5071979;28;20048;-66
2021/05/27 00:52:34;;;;;;;11.43;2.90;;;;;;;12.89;73.49;101369.34;5089802;28;20043;-65
2021/05/27 00:55:04;;;;;;;5.40;2.40;;;;;;;12.64;74.06;101374.66;5090766;28;20082;-66
2021/05/27 00:57:35;;;;;;;5.05;2.10;;;;;;;12.68;74.24;101370.94;5072146;28;20052;-64
2021/05/27 01:00:08;;;;;;;7.55;2.85;;;;;;;12.57;73.53;101375.06;5092612;28;20074;-65
2021/05/27 01:02:36;;;;;;;8.10;2.55;;;;;;;12.59;74.22;101383.88;5096422;28;20054;-66
2021/05/27 01:05:05;;;;;;;7.53;2.47;;;;;;;12.63;73.94;101378.53;5096784;28;20509;-66
2021/05/27 01:07:33;;;;;;;5.25;2.53;;;;;;;12.80;73.21;101373.16;5097307;28;20058;-66
2021/05/27 01:10:04;;;;;;;7.78;2.70;;;;;;;12.94;72.81;101384.97;5114868;28;20043;-68
2021/05/27 01:12:32;;;;;;;8.80;3.00;;;;;;;12.60;73.47;101377.22;5096257;28;20055;-65
2021/05/27 01:17:50;;;;;;;10.40;2.60;;;;;;;12.26;75.55;101383.22;5114538;28;20048;-67
2021/05/27 01:20:19;;;;;;;7.43;2.60;;;;;;;12.21;75.52;101383.31;5114586;28;20055;-67
2021/05/27 01:22:46;;;;;;;10.55;3.28;;;;;;;12.37;75.36;101384.63;5095791;28;20044;-68
2021/05/27 01:25:14;;;;;;;6.13;2.63;;;;;;;12.56;74.54;101386.44;5115301;28;20043;-67
2021/05/27 01:27:41;;;;;;;9.88;3.13;;;;;;;12.62;74.41;101386.03;5079725;28;20524;-67
2021/05/27 01:30:11;;;;;;;5.63;2.70;;;;;;;12.23;75.33;101386.59;5096622;28;20039;-66
2021/05/27 01:32:39;;;;;;;;;;;;;;;11.88;76.93;101386.47;5106981;28;20060;-66
2021/05/27 01:35:13;;;;;;;6.32;3.10;;;;;;;12.02;76.79;101388.13;5093523;28;19980;-66
2021/05/27 01:37:42;;;;;;;8.23;2.55;;;;;;;12.26;75.25;101380.44;5093789;28;20059;-66
2021/05/27 01:40:10;;;;;;;8.02;2.97;;;;;;;12.24;75.65;101377.16;5093679;28;20044;-65
2021/05/27 01:42:39;;;;;;;9.73;2.70;;;;;;;12.06;76.31;101391.94;5074876;28;20052;-66
2021/05/27 01:45:08;;;;;;;7.75;2.70;;;;;;;11.71;77.99;101386.25;5089182;28;20394;-67
2021/05/27 01:47:36;;;;;;;10.18;2.97;;;;;;;11.98;77.41;101389.88;5113907;28;20047;-69
2021/05/27 01:50:19;;;;;;;5.18;2.63;;;;;;;12.26;76.56;101387.91;5096283;28;20062;-68
2021/05/27 01:53:07;;;;;;;7.70;3.40;;;;;;;12.33;75.82;101396.59;5114666;28;20060;-67
2021/05/27 01:55:48;;;;;;;7.38;3.00;;;;;;;12.55;75.08;101387.56;5129541;27;20399;-68
2021/05/27 01:58:22;;;;;;;6.07;3.05;;;;;;;12.17;76.13;101390.56;5075830;28;20506;-67
2021/05/27 02:00:54;;;;;;;8.63;3.25;;;;;;;11.93;77.08;101397.41;5060449;28;20111;-67
2021/05/27 02:03:51;;;;;;;6.82;3.03;;;;;;;12.05;77.09;101401.31;5058196;28;20053;-68
2021/05/27 02:06:21;;;;;;;7.00;3.03;;;;;;;12.25;76.03;101394.56;5075666;28;20510;-68
2021/05/27 02:09:09;;;;;;;8.17;3.17;;;;;;;11.95;76.79;101395.19;5085325;28;20048;-68
2021/05/27 02:11:51;;;;;;;8.02;3.42;;;;;;;11.82;77.93;101390.47;5079476;28;20044;-66
2021/05/27 02:14:20;;;;;;;8.73;3.30;;;;;;;11.93;77.29;101391.91;5096073;28;20043;-67
2021/05/27 02:16:48;;;;;;;7.15;3.30;;;;;;;11.99;77.46;101399.81;5114044;28;20048;-67
2021/05/27 02:19:15;;;;;;;6.88;3.08;;;;;;;12.26;76.54;101394.25;5095735;28;20059;-66
2021/05/27 02:21:46;;;;;;;6.25;3.45;;;;;;;12.12;76.38;101387.09;5078960;28;20048;-66
2021/05/27 02:24:17;;;;;;;7.72;3.25;;;;;;;12.21;76.06;101393.53;5079279;28;20056;-67
2021/05/27 02:26:45;;;;;;;5.47;3.28;;;;;;;12.06;76.35;101386.41;5078727;28;20058;-65
2021/05/27 02:29:14;;;;;;;9.95;3.50;;;;;;;12.14;76.31;101398.66;5113408;28;20051;-66
2021/05/27 02:31:42;;;;;;;8.93;3.35;;;;;;;12.04;76.54;101399.69;5113121;28;20063;-66
2021/05/27 02:34:15;;;;;;;11.80;3.72;;;;;;;11.95;76.93;101401.53;5095468;28;20055;-66
2021/05/27 02:36:45;;;;;;;9.95;3.60;;;;;;;12.03;76.67;101405.53;5094766;28;20056;-66
2021/05/27 02:39:14;;;;;;;8.13;3.30;;;;;;;12.13;75.77;101406.13;5094864;28;20052;-68
2021/05/27 02:41:47;;;;;;;8.48;3.42;;;;;;;11.95;76.23;101406.22;5079163;28;20499;-65
2021/05/27 02:44:17;;;;;;;9.90;3.50;;;;;;;11.71;77.14;101408.34;5094449;28;20054;-66
2021/05/27 02:46:51;;;;;;;10.27;3.60;;;;;;;11.83;77.10;101400.38;5079080;28;20047;-66
2021/05/27 02:49:19;;;;;;;9.50;3.22;;;;;;;11.91;76.72;101408.78;5093903;28;20491;-67
2021/05/27 02:51:47;;;;;;;8.90;3.60;;;;;;;11.73;77.43;101406.09;5094601;28;20052;-67
2021/05/27 02:54:16;;;;;;;8.77;3.92;;;;;;;11.77;77.08;101401.63;5095987;28;20062;-68
2021/05/27 02:56:57;;;;;;;9.45;3.65;;;;;;;11.94;76.77;101399.06;5103608;28;20059;-69
2021/05/27 02:59:26;;;;;;;;;;;;;;;11.98;76.42;101397.31;5075122;28;20060;-68
2021/05/27 03:01:53;;;;;;;10.57;3.85;;;;;;;12.29;75.27;101399.16;5092202;28;19927;-66
2021/05/27 03:04:23;;;;;;;11.20;3.70;;;;;;;12.09;75.47;101399.59;5074095;28;20048;-67
2021/05/27 03:06:50;;;;;;;8.45;3.78;;;;;;;11.91;76.21;101399.66;5074235;28;20052;-66
2021/05/27 03:09:19;;;;;;;12.02;4.30;;;;;;;11.65;77.50;101399.34;5088599;28;20047;-68
2021/05/27 03:11:48;;;;;;;8.27;4.25;;;;;;;11.62;77.89;101404.59;5093705;28;20047;-67
2021/05/27 03:14:17;;;;;;;13.07;4.55;;;;;;;11.70;78.04;101407.50;5093991;28;20047;-67
2021/05/27 03:16:53;;;;;;;9.48;3.60;;;;;;;11.78;77.06;101408.75;5077163;28;20040;-67
2021/05/27 03:19:22;;;;;;;8.65;3.85;;;;;;;11.80;77.00;101403.75;5094556;28;20047;-67
2021/05/27 03:21:49;;;;;;;7.97;4.00;;;;;;;11.96;76.39;101402.34;5093950;28;20047;-68
2021/05/27 03:24:17;;;;;;;9.48;4.05;;;;;;;11.78;76.72;101406.84;5111509;28;20055;-66
2021/05/27 03:26:44;;;;;;;7.30;3.83;;;;;;;12.01;75.77;101407.78;5111566;28;20056;-64
2021/05/27 03:29:13;;;;;;;7.60;3.90;;;;;;;11.96;75.71;101407.88;5094590;28;20486;-67
2021/05/27 03:31:42;;;;;;;10.18;4.05;;;;;;;11.82;76.27;101410.59;5112331;28;20403;-66
2021/05/27 03:34:09;;;;;;;8.15;3.92;;;;;;;12.06;74.82;101407.66;5112468;28;20039;-66
2021/05/27 03:36:37;;;;;;;10.73;4.30;;;;;;;11.86;75.72;101408.88;5094026;28;20047;-65
2021/05/27 03:39:07;;;;;;;11.98;4.10;;;;;;;11.91;76.04;101414.28;5112316;28;20407;-66
2021/05/27 03:41:34;;;;;;;7.53;3.85;;;;;;;11.89;75.46;101410.22;5112324;28;20044;-65
2021/05/27 03:44:07;;;;;;;7.43;3.80;;;;;;;11.98;75.07;101398.13;5077381;28;20055;-64
2021/05/27 03:46:36;;;;;;;10.07;3.75;;;;;;;12.05;74.84;101389.44;5111873;28;20051;-65
2021/05/27 03:49:05;;;;;;;9.85;4.28;;;;;;;11.82;75.31;101401.53;5093763;28;20031;-66
2021/05/27 03:51:32;;;;;;;8.70;4.07;;;;;;;11.94;75.17;101404.59;5077302;28;20047;-68
2021/05/27 03:54:00;;;;;;;10.02;4.50;;;;;;;12.01;74.88;101397.53;5093155;28;20047;-66
2021/05/27 03:56:27;;;;;;;11.65;4.10;;;;;;;12.01;74.40;101402.25;5093273;28;20048;-66
2021/05/27 04:01:57;;;;;;;8.05;4.30;;;;;;;11.69;75.41;101411.41;5112247;27;20456;-65
2021/05/27 04:07:31;;;;;;;10.95;4.38;;;;;;;11.67;76.13;101413.66;5111470;28;20044;-64
2021/05/27 04:09:58;;;;;;;10.00;4.43;;;;;;;11.81;75.17;101419.19;5111090;28;20077;-65
2021/05/27 04:12:45;;;;;;;10.50;5.03;;;;;;;11.70;75.44;101423.28;5110824;28;20051;-68
2021/05/27 04:17:59;;;;;;;12.68;5.07;;;;;;;11.77;75.30;101418.97;5093328;28;20574;-65
2021/05/27 04:20:29;;;;;;;10.70;4.38;;;;;;;11.67;75.09;101416.41;5092378;28;20051;-67
2021/05/27 04:22:57;;;;;;;12.73;5.38;;;;;;;11.48;76.33;101423.06;5110563;28;20047;-67
2021/05/27 04:25:26;;;;;;;10.07;4.90;;;;;;;11.61;75.81;101427.81;5106200;28;20050;-64
2021/05/27 04:27:54;;;;;;;10.02;4.88;;;;;;;11.58;76.06;101422.88;5093213;28;20052;-66
2021/05/27 04:30:23;;;;;;;11.70;5.10;;;;;;;11.44;76.55;101430.31;5110062;28;20050;-64
2021/05/27 04:35:35;;;;;;;12.32;5.00;;;;;;;11.59;76.01;101433.66;5108928;28;20525;-65
2021/05/27 04:38:04;;;;;;;10.38;4.75;;;;;;;11.72;75.21;101443.09;5092978;28;20046;-66
2021/05/27 04:40:32;;;;;;;10.68;4.78;;;;;;;11.75;75.02;101439.75;5110295;28;20047;-66
2021/05/27 04:43:00;;;;;;;11.68;4.72;;;;;;;11.82;74.86;101445.69;5110548;28;20039;-64
2021/05/27 04:45:28;;;;;;;11.65;5.20;;;;;;;12.08;74.20;101444.09;5084483;28;20048;-65
2021/05/27 04:47:57;;;;;;;13.93;4.88;;;;;;;11.97;74.04;101442.63;5073418;28;20040;-67
2021/05/27 04:50:25;;;;;;;9.85;5.13;;;;;;;12.01;74.10;101449.19;5090237;28;20059;-66
2021/05/27 04:52:54;;;;;;;12.68;5.40;;;;;;;11.55;75.28;101449.16;5072654;28;20056;-67
2021/05/27 04:55:21;;;;;;;11.35;5.50;;;;;;;11.47;76.10;101449.03;5089785;28;20075;-66
2021/05/27 04:57:49;;;;;;;14.45;5.50;;;;;;;11.51;76.27;101450.03;5088805;28;20055;-65
2021/05/27 05:00:21;;;;;;;14.32;5.63;;;;;;;11.70;75.19;101456.41;5090256;28;20403;-64
2021/05/27 05:02:54;;;;;;;13.65;5.90;;;;;;;11.95;74.55;101444.88;5103931;28;20059;-66
2021/05/27 05:05:23;;;;;;;12.25;5.30;;;;;;;12.02;73.80;101448.06;5089345;28;20400;-66
2021/05/27 05:07:51;;;;;;;10.05;5.10;;;;;;;12.08;73.40;101449.59;5085169;28;20047;-67
2021/05/27 05:10:20;;;;;;;10.73;5.00;;;;;;;12.09;73.39;101449.28;5056274;28;20044;-66
2021/05/27 05:12:50;;;;;;;14.82;5.75;;;;;;;12.09;72.82;101445.72;5072086;28;20060;-67
2021/05/27 05:15:22;;;;;;;15.00;5.60;;;;;;;12.36;72.16;101451.25;5072411;28;20040;-64
2021/05/27 05:17:57;;;;;;;12.30;5.80;;;;;;;12.37;71.89;101453.69;5089056;28;20071;-68
2021/05/27 05:20:30;;;;;;;15.73;8.10;;;;;;;12.37;72.11;101450.94;5070380;28;20475;-65
2021/05/27 05:22:58;;;;;;;11.02;6.18;;;;;;;12.54;71.14;101450.31;5087943;28;20048;-65
2021/05/27 05:25:29;;;;;;;14.35;5.82;;;;;;;12.50;71.46;101456.78;5090003;28;20051;-68
2021/05/27 05:27:57;;;;;;;10.80;6.65;;;;;;;12.39;71.57;101458.91;5065706;28;20479;-66
2021/05/27 05:30:29;;;;;;;12.57;6.03;;;;;;;12.05;72.88;101461.25;5072638;28;20059;-67
2021/05/27 05:32:57;;;;;;;14.85;5.70;;;;;;;12.28;72.40;101471.28;5055067;28;20047;-65
2021/05/27 05:35:26;;;;;;;12.23;6.43;;;;;;;12.26;72.22;101463.31;5070573;28;20048;-66
2021/05/27 05:37:54;;;;;;;14.95;9.18;;;;;;;12.48;71.89;101465.38;5087757;28;20614;-64
2021/05/27 05:40:24;;;;;;;14.32;6.57;;;;;;;12.50;71.31;101470.59;5089217;28;20526;-66
2021/05/27 05:42:52;;;;;;;;;;;;;;;12.57;70.92;101466.25;5079341;28;20059;-66
2021/05/27 05:45:20;;;;;;;12.25;6.18;;;;;;;12.15;72.07;101474.88;5087883;28;19927;-65
2021/05/27 05:47:48;;;;;;;13.13;5.15;;;;;;;12.02;72.66;101479.25;5067765;28;20044;-65
2021/05/27 05:53:04;;;;;;;15.77;5.72;;;;;;;12.55;70.99;101482.34;5091358;28;20055;-65
2021/05/27 05:55:32;;;;;;;16.42;5.53;;;;;;;12.31;71.22;101488.06;5093067;28;20055;-66
2021/05/27 05:58:00;;;;;;;12.68;5.97;;;;;;;12.58;71.03;101487.25;5059118;28;20478;-70
2021/05/27 06:00:29;;;;;;;7.95;4.15;;;;;;;12.38;71.09;101501.47;5080303;28;20607;-69
2021/05/27 06:02:56;;;;;;;16.15;4.75;;;;;;;11.98;72.78;101502.22;5089594;28;20044;-71
2021/05/27 06:05:44;;;;;;;14.77;4.95;;;;;;;12.15;73.86;101496.97;5030368;28;20065;-73
2021/05/27 06:08:31;;;;;;;13.45;5.32;;;;;;;12.05;72.87;101502.66;5012819;28;20045;-68
2021/05/27 06:10:58;;;;;;;13.65;5.18;;;;;;;12.21;73.30;101501.25;5041344;28;20053;-72
2021/05/27 06:13:25;;;;;;;19.08;5.63;;;;;;;12.55;71.13;101496.16;5027746;28;20073;-69
2021/05/27 06:15:53;;;;;;;18.67;5.75;;;;;;;12.23;71.92;101497.06;5029587;28;20120;-69
2021/05/27 06:18:20;;;;;;;15.65;5.80;;;;;;;12.19;73.04;101492.44;5029105;28;20053;-67
2021/05/27 06:21:11;;;;;;;14.70;4.47;;;;;;;12.15;71.70;101489.47;4950983;29;20452;-69
2021/05/27 06:23:38;;;;;;;13.07;5.03;;;;;;;12.20;72.05;101505.16;4956384;28;20047;-72
2021/05/27 06:26:06;;;;;;;10.20;4.60;;;;;;;12.26;72.09;101499.22;4948882;28;20055;-69
2021/05/27 06:28:33;;;;;;;14.45;5.85;;;;;;;12.05;72.26;101510.94;4934850;29;20647;-69
2021/05/27 06:31:01;;;;;;;15.63;5.13;;;;;;;12.26;72.11;101510.28;4951245;29;20661;-69
2021/05/27 06:33:28;;;;;;;10.85;4.90;;;;;;;12.45;71.06;101505.47;4950769;29;20047;-63
2021/05/27 06:35:55;;;;;;;13.52;5.30;;;;;;;12.60;70.13;101500.75;4950759;29;20548;-68
2021/05/27 06:38:23;;;;;;;10.63;5.65;;;;;;;12.92;69.54;101506.97;4951436;29;20051;-65
2021/05/27 06:40:50;;;;;;;9.00;4.68;;;;;;;12.94;68.71;101496.41;4950883;29;20047;-70
2021/05/27 06:43:18;;;;;;;13.50;5.45;;;;;;;13.29;68.13;101503.94;4992645;28;20050;-66
2021/05/27 06:45:52;;;;;;;12.50;5.53;;;;;;;12.84;68.14;101509.66;5015974;28;20163;-66
2021/05/27 06:48:19;;;;;;;14.85;5.30;;;;;;;13.44;67.88;101505.53;5030673;28;20050;-65
2021/05/27 06:50:47;;;;;;;13.98;5.05;;;;;;;13.94;66.28;101504.28;5024503;28;20054;-66
2021/05/27 06:53:17;;;;;;;9.35;5.10;;;;;;;13.66;66.53;101510.25;5027482;28;20053;-68
2021/05/27 06:55:47;;;;;;;11.40;4.57;;;;;;;13.48;65.45;101501.00;5012039;28;20053;-61
2021/05/27 06:58:17;;;;;;;14.77;5.18;;;;;;;13.42;65.54;101505.84;5054414;28;20044;-63
2021/05/27 07:00:44;;;;;;;11.48;4.80;;;;;;;13.79;66.10;101506.63;5091404;28;20040;-65
2021/05/27 07:03:16;;;;;;;9.02;4.82;;;;;;;13.85;65.53;101510.88;5090021;28;20063;-63
2021/05/27 07:05:44;;;;;;;13.18;5.07;;;;;;;13.81;65.01;101507.91;5091331;28;20040;-63
2021/05/27 07:08:11;;;;;;;13.82;5.20;;;;;;;13.91;64.94;101506.84;5077460;28;20052;-64
2021/05/27 07:10:41;;;;;;;11.10;4.45;;;;;;;14.21;64.04;101511.59;5099237;28;20051;-63
2021/05/27 07:13:08;;;;;;;10.43;4.38;;;;;;;14.00;63.28;101516.84;5072364;28;20506;-63
2021/05/27 07:15:36;;;;;;;12.73;4.18;;;;;;;14.28;62.11;101515.56;5092505;28;20052;-61
2021/05/27 07:18:05;;;;;;;7.13;3.28;;;;;;;14.72;61.31;101502.69;5091610;28;20047;-63
2021/05/27 07:20:33;;;;;;;10.52;3.40;;;;;;;14.92;60.36;101519.56;5086717;28;20051;-63
2021/05/27 07:23:01;;;;;;;9.68;3.95;;;;;;;14.92;59.45;101510.41;5087723;28;20047;-61
2021/05/27 07:25:28;;;;;;;13.00;3.63;;;;;;;15.13;56.84;101515.00;5086872;28;20479;-64
2021/05/27 07:27:57;;;;;;;8.90;3.20;;;;;;;15.24;55.95;101507.19;5085044;28;20051;-63
2021/05/27 07:30:26;;;;;;;10.38;3.03;;;;;;;14.85;55.94;101512.84;5085613;28;20047;-67
2021/05/27 07:32:55;;;;;;;8.27;3.70;;;;;;;15.26;56.07;101511.28;5080989;28;20402;-66
2021/05/27 07:35:25;;;;;;;10.30;3.63;;;;;;;15.57;54.71;101511.97;5086582;28;20504;-66
2021/05/27 07:37:53;;;;;;;12.10;3.40;;;;;;;16.10;53.09;101513.50;5066812;28;20415;-61
2021/05/27 07:40:21;;;;;;;11.63;4.40;;;;;;;15.63;53.51;101516.22;5082907;28;20055;-65
2021/05/27 07:42:48;;;;;;;8.23;3.50;;;;;;;14.96;55.01;101526.06;5087835;28;20051;-70
2021/05/27 07:45:16;;;;;;;12.30;3.47;;;;;;;15.09;54.54;101522.34;5083959;28;20075;-65
2021/05/27 07:47:45;;;;;;;8.70;3.20;;;;;;;15.77;53.49;101525.19;5090766;28;20040;-67
2021/05/27 07:50:13;;;;;;;10.38;3.30;;;;;;;14.90;54.45;101530.16;5074620;28;20064;-66
2021/05/27 07:52:41;;;;;;;13.57;3.33;;;;;;;15.39;53.38;101515.03;5086578;28;20044;-67
2021/05/27 07:55:11;;;;;;;7.80;3.00;;;;;;;15.87;51.91;101524.03;5085196;28;20041;-67
2021/05/27 07:57:38;;;;;;;13.93;3.00;;;;;;;16.00;50.31;101523.03;5075682;28;20044;-68
2021/05/27 08:00:08;;;;;;;9.55;2.55;;;;;;;16.15;49.75;101524.44;5090169;28;20466;-67
2021/05/27 08:02:43;;;;;;;8.77;2.65;;;;;;;15.53;50.82;101529.63;5084250;28;20059;-66
2021/05/27 08:05:12;;;;;;;12.13;2.70;;;;;;;15.78;50.75;101521.25;5082640;28;20115;-66
2021/05/27 08:07:40;;;;;;;8.23;2.10;;;;;;;15.95;48.94;101522.38;5084087;28;20048;-68
2021/05/27 08:10:10;;;;;;;9.88;2.30;;;;;;;16.35;47.67;101526.53;5069938;28;20408;-63
2021/05/27 08:12:37;;;;;;;8.38;2.33;;;;;;;16.37;47.69;101527.81;5071418;28;20064;-63
2021/05/27 08:15:05;;;;;;;9.15;2.95;;;;;;;15.73;47.85;101532.53;5088608;28;20052;-61
2021/05/27 08:17:33;;;;;;;9.30;2.40;;;;;;;16.28;48.08;101529.81;5080435;28;20048;-62
2021/05/27 08:20:01;;;;;;;7.80;2.35;;;;;;;16.32;47.93;101521.63;5083513;28;20107;-61
2021/05/27 08:22:29;;;;;;;10.15;2.08;;;;;;;16.82;46.58;101517.81;5080901;28;20058;-61
2021/05/27 08:24:57;;;;;;;10.65;3.13;;;;;;;16.29;47.20;101523.09;5088961;28;20044;-62
2021/05/27 08:27:25;;;;;;;8.70;2.75;;;;;;;15.92;49.42;101529.41;5080866;28;20054;-62
2021/05/27 08:29:52;;;;;;;11.55;2.42;;;;;;;15.62;48.35;101534.00;5079585;28;20041;-63
2021/05/27 08:32:20;;;;;;;6.47;2.50;;;;;;;15.94;48.74;101531.84;5083429;28;20055;-63
2021/05/27 08:34:47;;;;;;;7.55;2.33;;;;;;;15.88;49.23;101530.41;5106016;27;20056;-62
2021/05/27 08:37:14;;;;;;;11.40;2.40;;;;;;;15.62;48.64;101536.78;5087869;28;20056;-61
2021/05/27 08:39:42;;;;;;;17.00;2.78;;;;;;;16.07;48.55;101530.84;5073366;28;20055;-62
2021/05/27 08:42:09;;;;;;;12.13;3.38;;;;;;;15.39;49.38;101532.53;5076959;28;20044;-62
2021/05/27 08:44:40;;;;;;;8.25;3.30;;;;;;;15.14;50.30;101535.25;5071974;28;20056;-62
2021/05/27 08:47:11;;;;;;;7.55;3.53;;;;;;;15.16;51.57;101535.75;5054782;28;20039;-61
2021/05/27 08:49:39;;;;;;;14.77;3.83;;;;;;;15.53;50.81;101529.63;5084792;28;20059;-62
2021/05/27 08:52:06;;;;;;;9.95;3.13;;;;;;;15.87;49.48;101529.56;5076438;28;20055;-63
2021/05/27 08:54:35;;;;;;;11.43;2.67;;;;;;;16.29;48.83;101522.28;5059077;28;20052;-64
2021/05/27 08:57:05;;;;;;;7.97;3.13;;;;;;;16.18;47.71;101532.94;5074802;28;20195;-62
2021/05/27 08:59:33;;;;;;;9.90;3.00;;;;;;;16.56;48.19;101525.47;5089878;28;20048;-62
2021/05/27 09:02:00;;;;;;;8.50;2.63;;;;;;;16.37;46.75;101535.34;5089721;28;20049;-64
2021/05/27 09:04:28;;;;;;;7.68;2.15;;;;;;;16.12;45.76;101536.22;5053530;28;20044;-64
2021/05/27 09:06:55;;;;;;;6.57;2.00;;;;;;;15.91;45.73;101536.13;5076519;28;20060;-63
2021/05/27 09:09:23;;;;;;;8.95;2.10;;;;;;;16.10;45.18;101530.19;5064770;28;20457;-62
2021/05/27 09:11:50;;;;;;;9.40;2.38;;;;;;;16.52;43.96;101530.09;5089915;28;20048;-61
2021/05/27 09:14:19;;;;;;;6.68;2.17;;;;;;;16.45;42.95;101517.81;5054227;28;20052;-63
2021/05/27 09:17:00;;;;;;;8.35;1.85;;;;;;;16.82;43.08;101517.81;5069928;28;20060;-62
2021/05/27 09:19:27;;;;;;;16.70;2.22;;;;;;;16.84;43.33;101521.09;5086962;28;20393;-63
2021/05/27 09:21:55;;;;;;;9.00;2.00;;;;;;;16.68;43.54;101519.22;5081761;28;20051;-61
2021/05/27 09:24:45;;;;;;;9.40;2.13;;;;;;;17.07;42.87;101527.16;5077030;28;20044;-63
2021/05/27 09:27:12;;;;;;;11.65;1.90;;;;;;;16.83;42.14;101529.78;5078926;28;20056;-63
2021/05/27 09:29:44;;;;;;;5.47;1.90;;;;;;;16.84;42.31;101535.00;5076713;28;20372;-62
2021/05/27 09:32:12;;;;;;;5.97;2.15;;;;;;;16.47;42.35;101533.06;5091963;28;20052;-60
2021/05/27 09:34:54;;;;;;;9.25;2.38;;;;;;;16.41;42.80;101539.09;5090063;28;20401;-61
2021/05/27 09:37:27;;;;;;;9.02;2.50;;;;;;;16.21;43.88;101542.59;5087528;28;20055;-62
2021/05/27 09:39:55;;;;;;;8.15;2.20;;;;;;;16.51;43.65;101530.44;5079804;28;20479;-58
2021/05/27 09:42:22;;;;;;;10.35;2.22;;;;;;;16.42;43.66;101529.59;5090093;28;20048;-63
2021/05/27 09:44:50;;;;;;;7.70;2.40;;;;;;;16.84;43.66;101536.97;5090984;28;20044;-62
2021/05/27 09:47:34;;;;;;;9.45;2.55;;;;;;;17.42;42.10;101530.50;5064491;28;20052;-64
2021/05/27 09:50:08;;;;;;;7.65;2.25;;;;;;;17.77;41.89;101523.53;5085465;28;20044;-64
2021/05/27 09:52:43;;;;;;;4.93;1.88;;;;;;;18.02;41.24;101533.63;5062120;28;20063;-62
2021/05/27 09:55:12;;;;;;;11.70;2.45;;;;;;;18.18;41.19;101534.59;5070156;28;20606;-63
2021/05/27 09:57:42;;;;;;;9.50;2.10;;;;;;;18.28;40.39;101538.91;5074581;28;20040;-64
2021/05/27 10:00:22;;;;;;;17.05;2.22;;;;;;;18.04;39.83;101534.09;5064834;28;20070;-63
2021/05/27 10:02:50;;;;;;;3.92;1.60;;;;;;;18.11;39.57;101536.31;5073298;28;20056;-55
2021/05/27 10:05:18;;;;;;;13.85;2.17;;;;;;;18.33;39.14;101535.91;5087839;28;20060;-63
2021/05/27 10:07:48;;;;;;;11.05;1.77;;;;;;;17.72;39.64;101532.94;5086110;28;20052;-63
2021/05/27 10:10:36;;;;;;;7.53;1.63;;;;;;;17.47;38.92;101533.94;5077429;28;20052;-66
2021/05/27 10:13:06;;;;;;;5.47;1.73;;;;;;;17.47;38.85;101539.53;5071810;28;20373;-64
2021/05/27 10:15:38;;;;;;;5.53;1.83;;;;;;;17.17;38.97;101537.09;5072575;28;20044;-65
2021/05/27 10:18:07;;;;;;;5.38;1.75;;;;;;;16.70;39.86;101537.19;5090201;28;20048;-64
2021/05/27 10:20:35;;;;;;;7.00;1.90;;;;;;;16.58;40.82;101544.63;5067856;28;20039;-61
2021/05/27 10:23:04;;;;;;;11.23;2.20;;;;;;;16.77;40.83;101536.69;5072853;28;20053;-63
2021/05/27 10:25:32;;;;;;;8.32;2.10;;;;;;;17.14;41.28;101538.59;5069464;28;20039;-63
2021/05/27 10:28:03;;;;;;;4.57;1.85;;;;;;;17.44;41.49;101544.94;5087911;28;20052;-62
2021/05/27 10:30:36;;;;;;;4.28;1.80;;;;;;;17.88;40.37;101538.69;5054572;28;20041;-62
2021/05/27 10:33:07;;;;;;;10.60;2.35;;;;;;;17.54;38.97;101527.84;5072563;28;20055;-63
2021/05/27 10:35:50;;;;;;;;;;;;;;;17.78;39.65;101531.53;5054343;28;20049;-62
2021/05/27 10:38:43;;;;;;;7.28;2.25;;;;;;;17.30;40.19;101530.44;5087765;28;19935;-63
2021/05/27 10:41:21;;;;;;;5.72;1.90;;;;;;;17.44;40.22;101533.78;5080857;28;20041;-60
2021/05/27 10:43:58;;;;;;;9.43;2.00;;;;;;;17.67;39.01;101537.88;5099459;27;20055;-69
2021/05/27 10:46:41;;;;;;;7.13;1.92;;;;;;;18.00;39.22;101541.50;5107779;28;20055;-67
2021/05/27 10:49:11;;;;;;;6.63;2.70;;;;;;;17.83;38.92;101541.69;5108379;28;20052;-70
2021/05/27 10:54:13;;;;;;;7.00;2.20;;;;;;;17.79;36.28;101538.78;5085370;28;20047;-70
2021/05/27 10:56:46;;;;;;;7.65;2.00;;;;;;;17.71;37.69;101542.44;5073730;28;20556;-69
2021/05/27 10:59:16;;;;;;;8.45;1.90;;;;;;;17.62;37.25;101541.72;5086347;28;20065;-69
2021/05/27 11:01:43;;;;;;;8.65;1.90;;;;;;;17.91;37.31;101535.19;5067438;28;20044;-71
2021/05/27 11:04:34;;;;;;;8.57;1.83;;;;;;;18.24;37.49;101538.78;5077855;28;20040;-71
2021/05/27 11:07:25;;;;;;;14.00;2.05;;;;;;;18.35;36.78;101541.94;5113172;28;20043;-75
2021/05/27 11:09:54;;;;;;;6.35;1.70;;;;;;;18.79;36.88;101541.13;5107472;28;20629;-68
2021/05/27 11:12:29;;;;;;;5.00;1.90;;;;;;;18.88;36.42;101534.25;5092023;28;20048;-71
2021/05/27 11:15:01;;;;;;;7.28;2.08;;;;;;;18.64;36.07;101536.22;5098236;28;20040;-73
2021/05/27 11:17:28;;;;;;;7.18;1.98;;;;;;;18.20;35.79;101537.84;5111268;28;20051;-74
2021/05/27 11:20:05;;;;;;;5.65;1.88;;;;;;;18.66;35.57;101531.91;5090026;28;20399;-70
2021/05/27 11:22:57;;;;;;;7.05;2.33;;;;;;;18.65;35.44;101532.28;5105296;28;20055;-70
2021/05/27 11:25:30;;;;;;;6.72;1.92;;;;;;;18.52;35.44;101525.03;5128118;27;20043;-70
2021/05/27 11:28:17;;;;;;;8.10;2.15;;;;;;;18.86;35.71;101532.97;5095339;28;20059;-68
2021/05/27 11:30:51;;;;;;;8.40;1.95;;;;;;;19.02;35.47;101529.13;5098685;28;20492;-74
2021/05/27 11:33:18;;;;;;;3.75;1.70;;;;;;;19.05;35.44;101533.19;5092259;28;20058;-72
2021/05/27 11:35:49;;;;;;;5.15;2.10;;;;;;;18.54;35.06;101522.72;5092448;28;20518;-75
2021/05/27 11:38:18;;;;;;;4.78;1.90;;;;;;;18.80;35.84;101528.78;5093648;28;20063;-71
2021/05/27 11:40:49;;;;;;;4.65;1.60;;;;;;;18.77;35.19;101521.09;5095851;28;20074;-69
2021/05/27 11:43:26;;;;;;;7.20;2.10;;;;;;;18.23;35.22;101530.78;5089220;28;20052;-72
2021/05/27 11:45:55;;;;;;;8.75;2.20;;;;;;;18.78;35.18;101514.34;5052002;28;20059;-70
2021/05/27 11:48:42;;;;;;;6.90;1.98;;;;;;;18.73;34.52;101520.16;5071737;28;20063;-69
2021/05/27 11:51:15;;;;;;;12.02;2.78;;;;;;;18.85;34.30;101518.19;5056200;28;20397;-68
2021/05/27 11:53:54;;;;;;;5.63;2.00;;;;;;;19.07;33.98;101511.31;5073303;28;20051;-66
2021/05/27 11:56:46;;;;;;;5.63;2.25;;;;;;;19.05;33.16;101517.25;5056146;28;20066;-70